In Rescue
 
Open Full Screen Window  High Contrast Mode
Wind Gusting 19 knots
15
July 13, 2020 10:47 AM CDT
Weather Information
Wind Direction
  190 °
Wind Speed
  15 kt (17 mph)
Wind Gust
  19 kt (22 mph)
Altimeter
29.82 in
Visibility
10 SM
Temperature
26° C
79° F
Dewpoint
19° C
66° F
Humidity
65%
1hr Rain Fall
00.00 in.
24hr Rain Fall
00.00 in.
Sky Condition
Missing
VFR

METAR KPQN 131547Z 19015G19KT 10SM 26/19 A2982 RMK AO2

FAA Disclaimer: The data displayed is for advisory purposes only and is not to be used for flight planning or operations.
Missing Cloud Data